<?xml version="1.0" encoding="UTF-8" standalone="no" ?>
<gpx xmlns="http://www.topografix.com/GPX/1/1" xmlns:xsi="http://www.w3.org/2001/XMLSchema-instance" xsi:schemaLocation="http://www.topografix.com/GPX/1/1 http://www.topografix.com/GPX/1/1/gpx.xsd" version="1.1" creator="VisuGPX - https://www.visugpx.com">
  <metadata>
    <name>Boucle en rive droite du Cledou au-dessus de Graissessac</name>
    <desc><![CDATA[#fait]]></desc>
  </metadata>
  <wpt lat="43.67772" lon="3.09546">
    <ele>331</ele>
    <name><![CDATA[Parking Musée de la Mine]]></name>
  </wpt>
  <wpt lat="43.67689" lon="3.09432">
    <ele>334</ele>
    <name><![CDATA[Four à pain]]></name>
  </wpt>
  <wpt lat="43.67415" lon="3.09478">
    <ele>373</ele>
    <name><![CDATA[Sentier à droite ]]></name>
  </wpt>
  <wpt lat="43.66641" lon="3.09274">
    <ele>454</ele>
    <name><![CDATA[Le Buis, piste carrossable]]></name>
  </wpt>
  <wpt lat="43.67101" lon="3.08531">
    <ele>503</ele>
    <name><![CDATA[Virage, départ sentier]]></name>
  </wpt>
  <wpt lat="43.67406" lon="3.08877">
    <ele>474</ele>
    <name><![CDATA[Traversée de piste]]></name>
  </wpt>
  <wpt lat="43.6742" lon="3.07827">
    <ele>500</ele>
    <name><![CDATA[Départ sentier descendant à gauche]]></name>
  </wpt>
  <wpt lat="43.67393" lon="3.07084">
    <ele>489</ele>
    <name><![CDATA[Entrée des Nières]]></name>
  </wpt>
  <wpt lat="43.67747" lon="3.0727">
    <ele>531</ele>
    <name><![CDATA[Croisement de pistes]]></name>
  </wpt>
  <wpt lat="43.67649" lon="3.07632">
    <ele>510</ele>
    <name><![CDATA[Départ sentier à gauche]]></name>
  </wpt>
  <wpt lat="43.67725" lon="3.08409">
    <ele>480</ele>
    <name><![CDATA[Croisement pistes, panorama]]></name>
  </wpt>
  <wpt lat="43.67833" lon="3.08978">
    <ele>405</ele>
    <name><![CDATA[Épingle, à droite]]></name>
  </wpt>
  <wpt lat="43.67759" lon="3.09208">
    <ele>377</ele>
    <name><![CDATA[Table d'orientation]]></name>
  </wpt>
  <wpt lat="43.67929" lon="3.08972">
    <ele>394</ele>
    <name><![CDATA[Mine des Pommiers et arboretum ]]></name>
  </wpt>
  <wpt lat="43.67984" lon="3.09085">
    <ele>364</ele>
    <name><![CDATA[Sentier Bleu à gauche ]]></name>
  </wpt>
  <wpt lat="43.67772" lon="3.09545">
    <ele>331</ele>
    <name><![CDATA[Parking Musée de la Mine]]></name>
  </wpt>
  <trk>
    <name><![CDATA[Boucle en rive droite du Cledou au-dessus de Graissessac]]></name>
    <trkseg>
      <trkpt lat="43.67772" lon="3.09546">
        <ele>331</ele>
        <time>2023-11-16T09:26:16+01:00</time>
      </trkpt>
      <trkpt lat="43.67761" lon="3.09531">
        <ele>330</ele>
        <time>2023-11-16T09:29:54+01:00</time>
      </trkpt>
      <trkpt lat="43.67757" lon="3.09519">
        <ele>330</ele>
        <time>2023-11-16T09:30:59+01:00</time>
      </trkpt>
      <trkpt lat="43.67749" lon="3.09496">
        <ele>330</ele>
        <time>2023-11-16T09:32:30+01:00</time>
      </trkpt>
      <trkpt lat="43.67739" lon="3.09476">
        <ele>330</ele>
        <time>2023-11-16T09:33:14+01:00</time>
      </trkpt>
      <trkpt lat="43.67719" lon="3.09478">
        <ele>330</ele>
        <time>2023-11-16T09:33:35+01:00</time>
      </trkpt>
      <trkpt lat="43.67711" lon="3.09479">
        <ele>330</ele>
        <time>2023-11-16T09:34:03+01:00</time>
      </trkpt>
      <trkpt lat="43.67706" lon="3.09468">
        <ele>330</ele>
      </trkpt>
      <trkpt lat="43.67694" lon="3.09462">
        <ele>330</ele>
        <time>2023-11-16T09:34:49+01:00</time>
      </trkpt>
      <trkpt lat="43.6769" lon="3.09447">
        <ele>331</ele>
      </trkpt>
      <trkpt lat="43.67689" lon="3.09432">
        <ele>334</ele>
        <time>2023-11-16T09:35:59+01:00</time>
      </trkpt>
      <trkpt lat="43.67674" lon="3.09434">
        <ele>337</ele>
        <time>2023-11-16T09:40:27+01:00</time>
      </trkpt>
      <trkpt lat="43.67656" lon="3.09437">
        <ele>341</ele>
        <time>2023-11-16T09:41:24+01:00</time>
      </trkpt>
      <trkpt lat="43.67637" lon="3.09444">
        <ele>345</ele>
        <time>2023-11-16T09:41:52+01:00</time>
      </trkpt>
      <trkpt lat="43.67622" lon="3.09453">
        <ele>344</ele>
        <time>2023-11-16T09:42:38+01:00</time>
      </trkpt>
      <trkpt lat="43.67604" lon="3.09447">
        <ele>350</ele>
        <time>2023-11-16T09:43:07+01:00</time>
      </trkpt>
      <trkpt lat="43.67585" lon="3.09449">
        <ele>354</ele>
        <time>2023-11-16T09:43:33+01:00</time>
      </trkpt>
      <trkpt lat="43.67567" lon="3.09443">
        <ele>364</ele>
        <time>2023-11-16T09:43:53+01:00</time>
      </trkpt>
      <trkpt lat="43.67549" lon="3.09449">
        <ele>371</ele>
        <time>2023-11-16T09:46:19+01:00</time>
      </trkpt>
      <trkpt lat="43.67536" lon="3.09469">
        <ele>373</ele>
        <time>2023-11-16T09:47:24+01:00</time>
      </trkpt>
      <trkpt lat="43.6752" lon="3.0948">
        <ele>376</ele>
        <time>2023-11-16T09:47:49+01:00</time>
      </trkpt>
      <trkpt lat="43.67502" lon="3.09492">
        <ele>377</ele>
        <time>2023-11-16T09:49:13+01:00</time>
      </trkpt>
      <trkpt lat="43.67484" lon="3.095">
        <ele>376</ele>
        <time>2023-11-16T09:49:30+01:00</time>
      </trkpt>
      <trkpt lat="43.67466" lon="3.09502">
        <ele>375</ele>
        <time>2023-11-16T09:50:22+01:00</time>
      </trkpt>
      <trkpt lat="43.67448" lon="3.09498">
        <ele>373</ele>
        <time>2023-11-16T09:50:40+01:00</time>
      </trkpt>
      <trkpt lat="43.67429" lon="3.0949">
        <ele>372</ele>
        <time>2023-11-16T09:50:56+01:00</time>
      </trkpt>
      <trkpt lat="43.67415" lon="3.09478">
        <ele>373</ele>
        <time>2023-11-16T09:52:47+01:00</time>
      </trkpt>
      <trkpt lat="43.67398" lon="3.09481">
        <ele>377</ele>
        <time>2023-11-16T09:53:10+01:00</time>
      </trkpt>
      <trkpt lat="43.67381" lon="3.09492">
        <ele>380</ele>
        <time>2023-11-16T09:53:33+01:00</time>
      </trkpt>
      <trkpt lat="43.67364" lon="3.09502">
        <ele>381</ele>
        <time>2023-11-16T09:53:55+01:00</time>
      </trkpt>
      <trkpt lat="43.67347" lon="3.09514">
        <ele>382</ele>
        <time>2023-11-16T09:54:10+01:00</time>
      </trkpt>
      <trkpt lat="43.6733" lon="3.09523">
        <ele>383</ele>
        <time>2023-11-16T09:54:29+01:00</time>
      </trkpt>
      <trkpt lat="43.67311" lon="3.09527">
        <ele>384</ele>
        <time>2023-11-16T09:54:53+01:00</time>
      </trkpt>
      <trkpt lat="43.67293" lon="3.09531">
        <ele>384</ele>
        <time>2023-11-16T09:55:57+01:00</time>
      </trkpt>
      <trkpt lat="43.67274" lon="3.09532">
        <ele>386</ele>
        <time>2023-11-16T09:56:15+01:00</time>
      </trkpt>
      <trkpt lat="43.67256" lon="3.09527">
        <ele>388</ele>
        <time>2023-11-16T09:56:35+01:00</time>
      </trkpt>
      <trkpt lat="43.67237" lon="3.09527">
        <ele>389</ele>
        <time>2023-11-16T09:56:52+01:00</time>
      </trkpt>
      <trkpt lat="43.67218" lon="3.09522">
        <ele>392</ele>
        <time>2023-11-16T09:57:09+01:00</time>
      </trkpt>
      <trkpt lat="43.67199" lon="3.09516">
        <ele>395</ele>
        <time>2023-11-16T09:57:26+01:00</time>
      </trkpt>
      <trkpt lat="43.67181" lon="3.09515">
        <ele>396</ele>
        <time>2023-11-16T09:57:50+01:00</time>
      </trkpt>
      <trkpt lat="43.67161" lon="3.09519">
        <ele>397</ele>
        <time>2023-11-16T09:58:08+01:00</time>
      </trkpt>
      <trkpt lat="43.67145" lon="3.09532">
        <ele>397</ele>
        <time>2023-11-16T09:58:28+01:00</time>
      </trkpt>
      <trkpt lat="43.6713" lon="3.09548">
        <ele>394</ele>
        <time>2023-11-16T09:58:47+01:00</time>
      </trkpt>
      <trkpt lat="43.67115" lon="3.09563">
        <ele>392</ele>
        <time>2023-11-16T09:59:10+01:00</time>
      </trkpt>
      <trkpt lat="43.67098" lon="3.09574">
        <ele>392</ele>
        <time>2023-11-16T09:59:31+01:00</time>
      </trkpt>
      <trkpt lat="43.6708" lon="3.09583">
        <ele>393</ele>
        <time>2023-11-16T09:59:53+01:00</time>
      </trkpt>
      <trkpt lat="43.67062" lon="3.09589">
        <ele>396</ele>
        <time>2023-11-16T10:00:25+01:00</time>
      </trkpt>
      <trkpt lat="43.67043" lon="3.09597">
        <ele>398</ele>
        <time>2023-11-16T10:01:33+01:00</time>
      </trkpt>
      <trkpt lat="43.67025" lon="3.09586">
        <ele>404</ele>
        <time>2023-11-16T10:02:04+01:00</time>
      </trkpt>
      <trkpt lat="43.67007" lon="3.09584">
        <ele>408</ele>
        <time>2023-11-16T10:02:31+01:00</time>
      </trkpt>
      <trkpt lat="43.66989" lon="3.09576">
        <ele>414</ele>
        <time>2023-11-16T10:02:59+01:00</time>
      </trkpt>
      <trkpt lat="43.66968" lon="3.09576">
        <ele>418</ele>
        <time>2023-11-16T10:03:36+01:00</time>
      </trkpt>
      <trkpt lat="43.6695" lon="3.09566">
        <ele>424</ele>
        <time>2023-11-16T10:04:06+01:00</time>
      </trkpt>
      <trkpt lat="43.66932" lon="3.0956">
        <ele>427</ele>
        <time>2023-11-16T10:04:29+01:00</time>
      </trkpt>
      <trkpt lat="43.66916" lon="3.09549">
        <ele>430</ele>
        <time>2023-11-16T10:05:39+01:00</time>
      </trkpt>
      <trkpt lat="43.66901" lon="3.09533">
        <ele>434</ele>
        <time>2023-11-16T10:06:02+01:00</time>
      </trkpt>
      <trkpt lat="43.66887" lon="3.09516">
        <ele>438</ele>
        <time>2023-11-16T10:06:26+01:00</time>
      </trkpt>
      <trkpt lat="43.66871" lon="3.09504">
        <ele>439</ele>
        <time>2023-11-16T10:06:55+01:00</time>
      </trkpt>
      <trkpt lat="43.66862" lon="3.09483">
        <ele>443</ele>
        <time>2023-11-16T10:07:21+01:00</time>
      </trkpt>
      <trkpt lat="43.66852" lon="3.09461">
        <ele>447</ele>
        <time>2023-11-16T10:07:47+01:00</time>
      </trkpt>
      <trkpt lat="43.66841" lon="3.0944">
        <ele>450</ele>
        <time>2023-11-16T10:08:46+01:00</time>
      </trkpt>
      <trkpt lat="43.66829" lon="3.09421">
        <ele>451</ele>
        <time>2023-11-16T10:09:23+01:00</time>
      </trkpt>
      <trkpt lat="43.66816" lon="3.09402">
        <ele>452</ele>
        <time>2023-11-16T10:09:45+01:00</time>
      </trkpt>
      <trkpt lat="43.66802" lon="3.09385">
        <ele>452</ele>
        <time>2023-11-16T10:10:05+01:00</time>
      </trkpt>
      <trkpt lat="43.66785" lon="3.09374">
        <ele>453</ele>
        <time>2023-11-16T10:10:24+01:00</time>
      </trkpt>
      <trkpt lat="43.66768" lon="3.09364">
        <ele>454</ele>
        <time>2023-11-16T10:10:43+01:00</time>
      </trkpt>
      <trkpt lat="43.66752" lon="3.09349">
        <ele>457</ele>
        <time>2023-11-16T10:11:03+01:00</time>
      </trkpt>
      <trkpt lat="43.66736" lon="3.09335">
        <ele>459</ele>
        <time>2023-11-16T10:12:03+01:00</time>
      </trkpt>
      <trkpt lat="43.66717" lon="3.09329">
        <ele>458</ele>
        <time>2023-11-16T10:12:21+01:00</time>
      </trkpt>
      <trkpt lat="43.66701" lon="3.09313">
        <ele>458</ele>
        <time>2023-11-16T10:12:39+01:00</time>
      </trkpt>
      <trkpt lat="43.66686" lon="3.09297">
        <ele>458</ele>
        <time>2023-11-16T10:12:56+01:00</time>
      </trkpt>
      <trkpt lat="43.66668" lon="3.09287">
        <ele>457</ele>
        <time>2023-11-16T10:13:13+01:00</time>
      </trkpt>
      <trkpt lat="43.66649" lon="3.0928">
        <ele>455</ele>
        <time>2023-11-16T10:13:29+01:00</time>
      </trkpt>
      <trkpt lat="43.66641" lon="3.09274">
        <ele>454</ele>
        <time>2023-11-16T10:14:22+01:00</time>
      </trkpt>
      <trkpt lat="43.66653" lon="3.09254">
        <ele>455</ele>
        <time>2023-11-16T10:14:47+01:00</time>
      </trkpt>
      <trkpt lat="43.66666" lon="3.09235">
        <ele>454</ele>
        <time>2023-11-16T10:15:03+01:00</time>
      </trkpt>
      <trkpt lat="43.66684" lon="3.09224">
        <ele>453</ele>
        <time>2023-11-16T10:15:19+01:00</time>
      </trkpt>
      <trkpt lat="43.667" lon="3.09212">
        <ele>453</ele>
        <time>2023-11-16T10:15:36+01:00</time>
      </trkpt>
      <trkpt lat="43.66716" lon="3.09197">
        <ele>453</ele>
        <time>2023-11-16T10:15:55+01:00</time>
      </trkpt>
      <trkpt lat="43.66731" lon="3.09181">
        <ele>453</ele>
        <time>2023-11-16T10:16:11+01:00</time>
      </trkpt>
      <trkpt lat="43.66746" lon="3.09167">
        <ele>455</ele>
        <time>2023-11-16T10:16:28+01:00</time>
      </trkpt>
      <trkpt lat="43.66757" lon="3.09147">
        <ele>456</ele>
        <time>2023-11-16T10:16:45+01:00</time>
      </trkpt>
      <trkpt lat="43.66766" lon="3.09122">
        <ele>458</ele>
        <time>2023-11-16T10:17:04+01:00</time>
      </trkpt>
      <trkpt lat="43.6677" lon="3.09096">
        <ele>458</ele>
        <time>2023-11-16T10:17:20+01:00</time>
      </trkpt>
      <trkpt lat="43.66777" lon="3.09072">
        <ele>460</ele>
        <time>2023-11-16T10:17:37+01:00</time>
      </trkpt>
      <trkpt lat="43.66785" lon="3.09048">
        <ele>462</ele>
        <time>2023-11-16T10:18:01+01:00</time>
      </trkpt>
      <trkpt lat="43.66789" lon="3.09022">
        <ele>462</ele>
        <time>2023-11-16T10:18:18+01:00</time>
      </trkpt>
      <trkpt lat="43.66793" lon="3.08995">
        <ele>462</ele>
        <time>2023-11-16T10:18:35+01:00</time>
      </trkpt>
      <trkpt lat="43.66798" lon="3.08969">
        <ele>462</ele>
        <time>2023-11-16T10:18:52+01:00</time>
      </trkpt>
      <trkpt lat="43.66805" lon="3.08943">
        <ele>463</ele>
        <time>2023-11-16T10:20:07+01:00</time>
      </trkpt>
      <trkpt lat="43.66814" lon="3.0892">
        <ele>464</ele>
        <time>2023-11-16T10:20:24+01:00</time>
      </trkpt>
      <trkpt lat="43.66825" lon="3.08898">
        <ele>465</ele>
        <time>2023-11-16T10:20:41+01:00</time>
      </trkpt>
      <trkpt lat="43.66836" lon="3.08877">
        <ele>467</ele>
        <time>2023-11-16T10:20:58+01:00</time>
      </trkpt>
      <trkpt lat="43.66847" lon="3.08856">
        <ele>468</ele>
        <time>2023-11-16T10:21:13+01:00</time>
      </trkpt>
      <trkpt lat="43.66859" lon="3.08835">
        <ele>470</ele>
        <time>2023-11-16T10:21:30+01:00</time>
      </trkpt>
      <trkpt lat="43.66872" lon="3.08814">
        <ele>472</ele>
        <time>2023-11-16T10:21:46+01:00</time>
      </trkpt>
      <trkpt lat="43.6688" lon="3.08791">
        <ele>472</ele>
        <time>2023-11-16T10:22:02+01:00</time>
      </trkpt>
      <trkpt lat="43.6689" lon="3.08767">
        <ele>474</ele>
        <time>2023-11-16T10:22:19+01:00</time>
      </trkpt>
      <trkpt lat="43.66895" lon="3.08742">
        <ele>473</ele>
        <time>2023-11-16T10:22:34+01:00</time>
      </trkpt>
      <trkpt lat="43.66901" lon="3.08717">
        <ele>473</ele>
        <time>2023-11-16T10:22:51+01:00</time>
      </trkpt>
      <trkpt lat="43.66911" lon="3.08694">
        <ele>475</ele>
        <time>2023-11-16T10:23:08+01:00</time>
      </trkpt>
      <trkpt lat="43.66923" lon="3.08673">
        <ele>476</ele>
        <time>2023-11-16T10:23:25+01:00</time>
      </trkpt>
      <trkpt lat="43.66935" lon="3.08653">
        <ele>478</ele>
        <time>2023-11-16T10:23:43+01:00</time>
      </trkpt>
      <trkpt lat="43.66951" lon="3.08639">
        <ele>481</ele>
        <time>2023-11-16T10:24:02+01:00</time>
      </trkpt>
      <trkpt lat="43.66968" lon="3.08628">
        <ele>484</ele>
        <time>2023-11-16T10:24:19+01:00</time>
      </trkpt>
      <trkpt lat="43.66984" lon="3.08612">
        <ele>486</ele>
        <time>2023-11-16T10:24:37+01:00</time>
      </trkpt>
      <trkpt lat="43.67" lon="3.08597">
        <ele>487</ele>
        <time>2023-11-16T10:24:57+01:00</time>
      </trkpt>
      <trkpt lat="43.67017" lon="3.08586">
        <ele>491</ele>
        <time>2023-11-16T10:25:16+01:00</time>
      </trkpt>
      <trkpt lat="43.67034" lon="3.08574">
        <ele>493</ele>
        <time>2023-11-16T10:25:33+01:00</time>
      </trkpt>
      <trkpt lat="43.67051" lon="3.08564">
        <ele>495</ele>
        <time>2023-11-16T10:25:50+01:00</time>
      </trkpt>
      <trkpt lat="43.67065" lon="3.08549">
        <ele>497</ele>
        <time>2023-11-16T10:26:08+01:00</time>
      </trkpt>
      <trkpt lat="43.67082" lon="3.08535">
        <ele>498</ele>
        <time>2023-11-16T10:26:26+01:00</time>
      </trkpt>
      <trkpt lat="43.67101" lon="3.08531">
        <ele>503</ele>
        <time>2023-11-16T10:31:24+01:00</time>
      </trkpt>
      <trkpt lat="43.6711" lon="3.0851">
        <ele>502</ele>
        <time>2023-11-16T10:31:52+01:00</time>
      </trkpt>
      <trkpt lat="43.67127" lon="3.08501">
        <ele>503</ele>
        <time>2023-11-16T10:32:37+01:00</time>
      </trkpt>
      <trkpt lat="43.67145" lon="3.08502">
        <ele>506</ele>
        <time>2023-11-16T10:32:59+01:00</time>
      </trkpt>
      <trkpt lat="43.67165" lon="3.0851">
        <ele>509</ele>
        <time>2023-11-16T10:33:18+01:00</time>
      </trkpt>
      <trkpt lat="43.67184" lon="3.08516">
        <ele>513</ele>
        <time>2023-11-16T10:33:33+01:00</time>
      </trkpt>
      <trkpt lat="43.67202" lon="3.08527">
        <ele>518</ele>
        <time>2023-11-16T10:33:50+01:00</time>
      </trkpt>
      <trkpt lat="43.6722" lon="3.08538">
        <ele>521</ele>
        <time>2023-11-16T10:34:20+01:00</time>
      </trkpt>
      <trkpt lat="43.67238" lon="3.08548">
        <ele>522</ele>
        <time>2023-11-16T10:34:42+01:00</time>
      </trkpt>
      <trkpt lat="43.67252" lon="3.08565">
        <ele>524</ele>
        <time>2023-11-16T10:36:02+01:00</time>
      </trkpt>
      <trkpt lat="43.67265" lon="3.08583">
        <ele>525</ele>
        <time>2023-11-16T10:36:22+01:00</time>
      </trkpt>
      <trkpt lat="43.67278" lon="3.08602">
        <ele>523</ele>
        <time>2023-11-16T10:37:15+01:00</time>
      </trkpt>
      <trkpt lat="43.67292" lon="3.08621">
        <ele>520</ele>
        <time>2023-11-16T10:37:30+01:00</time>
      </trkpt>
      <trkpt lat="43.67305" lon="3.0864">
        <ele>517</ele>
        <time>2023-11-16T10:37:46+01:00</time>
      </trkpt>
      <trkpt lat="43.6732" lon="3.08656">
        <ele>513</ele>
        <time>2023-11-16T10:38:02+01:00</time>
      </trkpt>
      <trkpt lat="43.67335" lon="3.08672">
        <ele>509</ele>
        <time>2023-11-16T10:38:53+01:00</time>
      </trkpt>
      <trkpt lat="43.67352" lon="3.08684">
        <ele>503</ele>
        <time>2023-11-16T10:39:11+01:00</time>
      </trkpt>
      <trkpt lat="43.6736" lon="3.08707">
        <ele>500</ele>
        <time>2023-11-16T10:39:28+01:00</time>
      </trkpt>
      <trkpt lat="43.67364" lon="3.08733">
        <ele>497</ele>
        <time>2023-11-16T10:39:43+01:00</time>
      </trkpt>
      <trkpt lat="43.67367" lon="3.08759">
        <ele>494</ele>
        <time>2023-11-16T10:40:00+01:00</time>
      </trkpt>
      <trkpt lat="43.67368" lon="3.08788">
        <ele>493</ele>
        <time>2023-11-16T10:40:19+01:00</time>
      </trkpt>
      <trkpt lat="43.67369" lon="3.08815">
        <ele>490</ele>
        <time>2023-11-16T10:40:32+01:00</time>
      </trkpt>
      <trkpt lat="43.67369" lon="3.08841">
        <ele>488</ele>
        <time>2023-11-16T10:40:46+01:00</time>
      </trkpt>
      <trkpt lat="43.6737" lon="3.08868">
        <ele>487</ele>
        <time>2023-11-16T10:41:00+01:00</time>
      </trkpt>
      <trkpt lat="43.67376" lon="3.08893">
        <ele>482</ele>
        <time>2023-11-16T10:41:18+01:00</time>
      </trkpt>
      <trkpt lat="43.67381" lon="3.08919">
        <ele>476</ele>
        <time>2023-11-16T10:42:19+01:00</time>
      </trkpt>
      <trkpt lat="43.67388" lon="3.08945">
        <ele>470</ele>
        <time>2023-11-16T10:42:39+01:00</time>
      </trkpt>
      <trkpt lat="43.67408" lon="3.08951">
        <ele>466</ele>
        <time>2023-11-16T10:45:05+01:00</time>
      </trkpt>
      <trkpt lat="43.67412" lon="3.08926">
        <ele>467</ele>
        <time>2023-11-16T10:45:25+01:00</time>
      </trkpt>
      <trkpt lat="43.67405" lon="3.08902">
        <ele>471</ele>
        <time>2023-11-16T10:45:43+01:00</time>
      </trkpt>
      <trkpt lat="43.67406" lon="3.08877">
        <ele>474</ele>
        <time>2023-11-16T10:46:28+01:00</time>
      </trkpt>
      <trkpt lat="43.67409" lon="3.08853">
        <ele>474</ele>
        <time>2023-11-16T10:47:12+01:00</time>
      </trkpt>
      <trkpt lat="43.67408" lon="3.08827">
        <ele>475</ele>
        <time>2023-11-16T10:47:30+01:00</time>
      </trkpt>
      <trkpt lat="43.67412" lon="3.088">
        <ele>475</ele>
        <time>2023-11-16T10:47:46+01:00</time>
      </trkpt>
      <trkpt lat="43.67412" lon="3.08774">
        <ele>478</ele>
        <time>2023-11-16T10:48:04+01:00</time>
      </trkpt>
      <trkpt lat="43.67405" lon="3.0875">
        <ele>481</ele>
        <time>2023-11-16T10:48:20+01:00</time>
      </trkpt>
      <trkpt lat="43.67408" lon="3.08724">
        <ele>482</ele>
        <time>2023-11-16T10:48:35+01:00</time>
      </trkpt>
      <trkpt lat="43.67406" lon="3.08697">
        <ele>484</ele>
        <time>2023-11-16T10:48:50+01:00</time>
      </trkpt>
      <trkpt lat="43.67405" lon="3.08684">
        <ele>484</ele>
        <time>2023-11-16T10:48:59+01:00</time>
      </trkpt>
      <trkpt lat="43.674" lon="3.08659">
        <ele>486</ele>
        <time>2023-11-16T10:49:14+01:00</time>
      </trkpt>
      <trkpt lat="43.67392" lon="3.08636">
        <ele>489</ele>
        <time>2023-11-16T10:49:47+01:00</time>
      </trkpt>
      <trkpt lat="43.67383" lon="3.08613">
        <ele>492</ele>
        <time>2023-11-16T10:50:00+01:00</time>
      </trkpt>
      <trkpt lat="43.67378" lon="3.08588">
        <ele>493</ele>
        <time>2023-11-16T10:50:19+01:00</time>
      </trkpt>
      <trkpt lat="43.67371" lon="3.08563">
        <ele>495</ele>
        <time>2023-11-16T10:50:39+01:00</time>
      </trkpt>
      <trkpt lat="43.67362" lon="3.08544">
        <ele>497</ele>
        <time>2023-11-16T10:53:29+01:00</time>
      </trkpt>
      <trkpt lat="43.67349" lon="3.08527">
        <ele>499</ele>
        <time>2023-11-16T10:53:55+01:00</time>
      </trkpt>
      <trkpt lat="43.67333" lon="3.08515">
        <ele>503</ele>
        <time>2023-11-16T10:54:17+01:00</time>
      </trkpt>
      <trkpt lat="43.67321" lon="3.08496">
        <ele>508</ele>
        <time>2023-11-16T10:54:40+01:00</time>
      </trkpt>
      <trkpt lat="43.67305" lon="3.08478">
        <ele>512</ele>
        <time>2023-11-16T10:54:59+01:00</time>
      </trkpt>
      <trkpt lat="43.67291" lon="3.08459">
        <ele>514</ele>
        <time>2023-11-16T10:56:42+01:00</time>
      </trkpt>
      <trkpt lat="43.6728" lon="3.08437">
        <ele>515</ele>
        <time>2023-11-16T10:58:26+01:00</time>
      </trkpt>
      <trkpt lat="43.67265" lon="3.0842">
        <ele>514</ele>
        <time>2023-11-16T10:58:44+01:00</time>
      </trkpt>
      <trkpt lat="43.67249" lon="3.08408">
        <ele>511</ele>
        <time>2023-11-16T10:58:59+01:00</time>
      </trkpt>
      <trkpt lat="43.67234" lon="3.08392">
        <ele>505</ele>
        <time>2023-11-16T10:59:17+01:00</time>
      </trkpt>
      <trkpt lat="43.67237" lon="3.08366">
        <ele>503</ele>
        <time>2023-11-16T11:00:59+01:00</time>
      </trkpt>
      <trkpt lat="43.67222" lon="3.08351">
        <ele>496</ele>
        <time>2023-11-16T11:01:15+01:00</time>
      </trkpt>
      <trkpt lat="43.67207" lon="3.08334">
        <ele>488</ele>
        <time>2023-11-16T11:01:32+01:00</time>
      </trkpt>
      <trkpt lat="43.6719" lon="3.08325">
        <ele>479</ele>
        <time>2023-11-16T11:01:49+01:00</time>
      </trkpt>
      <trkpt lat="43.67172" lon="3.08319">
        <ele>472</ele>
        <time>2023-11-16T11:03:02+01:00</time>
      </trkpt>
      <trkpt lat="43.67159" lon="3.08299">
        <ele>469</ele>
        <time>2023-11-16T11:03:25+01:00</time>
      </trkpt>
      <trkpt lat="43.67144" lon="3.08284">
        <ele>467</ele>
        <time>2023-11-16T11:03:44+01:00</time>
      </trkpt>
      <trkpt lat="43.67137" lon="3.08259">
        <ele>465</ele>
        <time>2023-11-16T11:04:26+01:00</time>
      </trkpt>
      <trkpt lat="43.67141" lon="3.08236">
        <ele>468</ele>
        <time>2023-11-16T11:07:19+01:00</time>
      </trkpt>
      <trkpt lat="43.67142" lon="3.08213">
        <ele>468</ele>
        <time>2023-11-16T11:07:46+01:00</time>
      </trkpt>
      <trkpt lat="43.67153" lon="3.08191">
        <ele>470</ele>
        <time>2023-11-16T11:08:03+01:00</time>
      </trkpt>
      <trkpt lat="43.67161" lon="3.08167">
        <ele>470</ele>
        <time>2023-11-16T11:08:20+01:00</time>
      </trkpt>
      <trkpt lat="43.67175" lon="3.08149">
        <ele>472</ele>
        <time>2023-11-16T11:08:37+01:00</time>
      </trkpt>
      <trkpt lat="43.6719" lon="3.08132">
        <ele>472</ele>
        <time>2023-11-16T11:08:55+01:00</time>
      </trkpt>
      <trkpt lat="43.67189" lon="3.08162">
        <ele>475</ele>
        <time>2023-11-16T11:09:30+01:00</time>
      </trkpt>
      <trkpt lat="43.67172" lon="3.08169">
        <ele>473</ele>
        <time>2023-11-16T11:10:49+01:00</time>
      </trkpt>
      <trkpt lat="43.67189" lon="3.0816">
        <ele>475</ele>
        <time>2023-11-16T11:12:13+01:00</time>
      </trkpt>
      <trkpt lat="43.67196" lon="3.08137">
        <ele>474</ele>
        <time>2023-11-16T11:12:45+01:00</time>
      </trkpt>
      <trkpt lat="43.67197" lon="3.08111">
        <ele>470</ele>
        <time>2023-11-16T11:13:09+01:00</time>
      </trkpt>
      <trkpt lat="43.67208" lon="3.0809">
        <ele>467</ele>
        <time>2023-11-16T11:13:25+01:00</time>
      </trkpt>
      <trkpt lat="43.67221" lon="3.08072">
        <ele>465</ele>
        <time>2023-11-16T11:13:41+01:00</time>
      </trkpt>
      <trkpt lat="43.67235" lon="3.08056">
        <ele>468</ele>
        <time>2023-11-16T11:13:56+01:00</time>
      </trkpt>
      <trkpt lat="43.67252" lon="3.08045">
        <ele>474</ele>
        <time>2023-11-16T11:14:15+01:00</time>
      </trkpt>
      <trkpt lat="43.67261" lon="3.0804">
        <ele>477</ele>
        <time>2023-11-16T11:14:25+01:00</time>
      </trkpt>
      <trkpt lat="43.67275" lon="3.08024">
        <ele>481</ele>
        <time>2023-11-16T11:14:53+01:00</time>
      </trkpt>
      <trkpt lat="43.67285" lon="3.08002">
        <ele>478</ele>
        <time>2023-11-16T11:15:18+01:00</time>
      </trkpt>
      <trkpt lat="43.67297" lon="3.0798">
        <ele>473</ele>
        <time>2023-11-16T11:15:45+01:00</time>
      </trkpt>
      <trkpt lat="43.67315" lon="3.0797">
        <ele>474</ele>
        <time>2023-11-16T11:16:03+01:00</time>
      </trkpt>
      <trkpt lat="43.67332" lon="3.07957">
        <ele>476</ele>
        <time>2023-11-16T11:16:18+01:00</time>
      </trkpt>
      <trkpt lat="43.67349" lon="3.07941">
        <ele>478</ele>
        <time>2023-11-16T11:16:35+01:00</time>
      </trkpt>
      <trkpt lat="43.67358" lon="3.07918">
        <ele>478</ele>
        <time>2023-11-16T11:16:53+01:00</time>
      </trkpt>
      <trkpt lat="43.67369" lon="3.07898">
        <ele>483</ele>
        <time>2023-11-16T11:17:11+01:00</time>
      </trkpt>
      <trkpt lat="43.6738" lon="3.07877">
        <ele>488</ele>
        <time>2023-11-16T11:17:32+01:00</time>
      </trkpt>
      <trkpt lat="43.6739" lon="3.07855">
        <ele>492</ele>
        <time>2023-11-16T11:17:53+01:00</time>
      </trkpt>
      <trkpt lat="43.67403" lon="3.07838">
        <ele>495</ele>
        <time>2023-11-16T11:18:13+01:00</time>
      </trkpt>
      <trkpt lat="43.6742" lon="3.07827">
        <ele>500</ele>
        <time>2023-11-16T11:19:23+01:00</time>
      </trkpt>
      <trkpt lat="43.67429" lon="3.07805">
        <ele>501</ele>
        <time>2023-11-16T11:19:45+01:00</time>
      </trkpt>
      <trkpt lat="43.67436" lon="3.07783">
        <ele>501</ele>
        <time>2023-11-16T11:20:01+01:00</time>
      </trkpt>
      <trkpt lat="43.67438" lon="3.07769">
        <ele>501</ele>
        <time>2023-11-16T11:20:11+01:00</time>
      </trkpt>
      <trkpt lat="43.67443" lon="3.07741">
        <ele>500</ele>
        <time>2023-11-16T11:20:29+01:00</time>
      </trkpt>
      <trkpt lat="43.67454" lon="3.07718">
        <ele>498</ele>
        <time>2023-11-16T11:20:54+01:00</time>
      </trkpt>
      <trkpt lat="43.67467" lon="3.07706">
        <ele>496</ele>
      </trkpt>
      <trkpt lat="43.67486" lon="3.07694">
        <ele>494</ele>
        <time>2023-11-16T11:38:44+01:00</time>
      </trkpt>
      <trkpt lat="43.67503" lon="3.07701">
        <ele>497</ele>
        <time>2023-11-16T11:39:08+01:00</time>
      </trkpt>
      <trkpt lat="43.67523" lon="3.07692">
        <ele>496</ele>
        <time>2023-11-16T11:39:26+01:00</time>
      </trkpt>
      <trkpt lat="43.67541" lon="3.07684">
        <ele>496</ele>
        <time>2023-11-16T11:39:45+01:00</time>
      </trkpt>
      <trkpt lat="43.67555" lon="3.07667">
        <ele>495</ele>
        <time>2023-11-16T11:40:01+01:00</time>
      </trkpt>
      <trkpt lat="43.67568" lon="3.07647">
        <ele>494</ele>
        <time>2023-11-16T11:40:17+01:00</time>
      </trkpt>
      <trkpt lat="43.67576" lon="3.07624">
        <ele>492</ele>
        <time>2023-11-16T11:40:33+01:00</time>
      </trkpt>
      <trkpt lat="43.67587" lon="3.07601">
        <ele>492</ele>
        <time>2023-11-16T11:40:50+01:00</time>
      </trkpt>
      <trkpt lat="43.67595" lon="3.07578">
        <ele>493</ele>
        <time>2023-11-16T11:41:07+01:00</time>
      </trkpt>
      <trkpt lat="43.67602" lon="3.07554">
        <ele>496</ele>
        <time>2023-11-16T11:41:25+01:00</time>
      </trkpt>
      <trkpt lat="43.67599" lon="3.07528">
        <ele>497</ele>
        <time>2023-11-16T11:41:45+01:00</time>
      </trkpt>
      <trkpt lat="43.67596" lon="3.07502">
        <ele>499</ele>
        <time>2023-11-16T11:42:02+01:00</time>
      </trkpt>
      <trkpt lat="43.67582" lon="3.07482">
        <ele>498</ele>
        <time>2023-11-16T11:44:13+01:00</time>
      </trkpt>
      <trkpt lat="43.6757" lon="3.07471">
        <ele>496</ele>
        <time>2023-11-16T11:44:34+01:00</time>
      </trkpt>
      <trkpt lat="43.67556" lon="3.07456">
        <ele>494</ele>
        <time>2023-11-16T11:45:05+01:00</time>
      </trkpt>
      <trkpt lat="43.6754" lon="3.07442">
        <ele>492</ele>
        <time>2023-11-16T11:45:24+01:00</time>
      </trkpt>
      <trkpt lat="43.67527" lon="3.07424">
        <ele>495</ele>
        <time>2023-11-16T11:46:33+01:00</time>
      </trkpt>
      <trkpt lat="43.67511" lon="3.07427">
        <ele>488</ele>
        <time>2023-11-16T11:47:22+01:00</time>
      </trkpt>
      <trkpt lat="43.67491" lon="3.0742">
        <ele>484</ele>
        <time>2023-11-16T11:48:17+01:00</time>
      </trkpt>
      <trkpt lat="43.67481" lon="3.07407">
        <ele>483</ele>
        <time>2023-11-16T11:48:36+01:00</time>
      </trkpt>
      <trkpt lat="43.67468" lon="3.07386">
        <ele>485</ele>
        <time>2023-11-16T11:48:52+01:00</time>
      </trkpt>
      <trkpt lat="43.67454" lon="3.07368">
        <ele>486</ele>
        <time>2023-11-16T11:49:09+01:00</time>
      </trkpt>
      <trkpt lat="43.67438" lon="3.07353">
        <ele>485</ele>
        <time>2023-11-16T11:49:25+01:00</time>
      </trkpt>
      <trkpt lat="43.67421" lon="3.0734">
        <ele>484</ele>
        <time>2023-11-16T11:50:55+01:00</time>
      </trkpt>
      <trkpt lat="43.6741" lon="3.0732">
        <ele>487</ele>
        <time>2023-11-16T11:51:48+01:00</time>
      </trkpt>
      <trkpt lat="43.67393" lon="3.07308">
        <ele>484</ele>
        <time>2023-11-16T11:52:08+01:00</time>
      </trkpt>
      <trkpt lat="43.67379" lon="3.07291">
        <ele>487</ele>
        <time>2023-11-16T11:52:25+01:00</time>
      </trkpt>
      <trkpt lat="43.67367" lon="3.07272">
        <ele>488</ele>
        <time>2023-11-16T11:52:42+01:00</time>
      </trkpt>
      <trkpt lat="43.67362" lon="3.07246">
        <ele>491</ele>
        <time>2023-11-16T11:53:03+01:00</time>
      </trkpt>
      <trkpt lat="43.67368" lon="3.07221">
        <ele>495</ele>
        <time>2023-11-16T11:53:34+01:00</time>
      </trkpt>
      <trkpt lat="43.67367" lon="3.07196">
        <ele>494</ele>
        <time>2023-11-16T11:54:04+01:00</time>
      </trkpt>
      <trkpt lat="43.67372" lon="3.0717">
        <ele>493</ele>
        <time>2023-11-16T11:54:33+01:00</time>
      </trkpt>
      <trkpt lat="43.67376" lon="3.07145">
        <ele>492</ele>
        <time>2023-11-16T11:54:51+01:00</time>
      </trkpt>
      <trkpt lat="43.67384" lon="3.0712">
        <ele>492</ele>
        <time>2023-11-16T11:55:08+01:00</time>
      </trkpt>
      <trkpt lat="43.67391" lon="3.07097">
        <ele>491</ele>
        <time>2023-11-16T11:55:25+01:00</time>
      </trkpt>
      <trkpt lat="43.67393" lon="3.07084">
        <ele>489</ele>
        <time>2023-11-16T11:55:32+01:00</time>
      </trkpt>
      <trkpt lat="43.67399" lon="3.07061">
        <ele>487</ele>
        <time>2023-11-16T11:55:49+01:00</time>
      </trkpt>
      <trkpt lat="43.67403" lon="3.07035">
        <ele>482</ele>
        <time>2023-11-16T11:56:17+01:00</time>
      </trkpt>
      <trkpt lat="43.67409" lon="3.0701">
        <ele>479</ele>
        <time>2023-11-16T11:56:53+01:00</time>
      </trkpt>
      <trkpt lat="43.67414" lon="3.06989">
        <ele>477</ele>
        <time>2023-11-16T11:57:43+01:00</time>
      </trkpt>
      <trkpt lat="43.67417" lon="3.06973">
        <ele>475</ele>
        <time>2023-11-16T11:59:16+01:00</time>
      </trkpt>
      <trkpt lat="43.67423" lon="3.06954">
        <ele>475</ele>
        <time>2023-11-16T12:00:58+01:00</time>
      </trkpt>
      <trkpt lat="43.67411" lon="3.06949">
        <ele>470</ele>
        <time>2023-11-16T12:02:11+01:00</time>
      </trkpt>
      <trkpt lat="43.67415" lon="3.06915">
        <ele>467</ele>
        <time>2023-11-16T12:02:30+01:00</time>
      </trkpt>
      <trkpt lat="43.67419" lon="3.0689">
        <ele>467</ele>
        <time>2023-11-16T12:04:04+01:00</time>
      </trkpt>
      <trkpt lat="43.67426" lon="3.06865">
        <ele>468</ele>
        <time>2023-11-16T12:04:33+01:00</time>
      </trkpt>
      <trkpt lat="43.67436" lon="3.06844">
        <ele>470</ele>
        <time>2023-11-16T12:04:51+01:00</time>
      </trkpt>
      <trkpt lat="43.67443" lon="3.0682">
        <ele>470</ele>
        <time>2023-11-16T12:05:09+01:00</time>
      </trkpt>
      <trkpt lat="43.67441" lon="3.06807">
        <ele>468</ele>
        <time>2023-11-16T12:05:22+01:00</time>
      </trkpt>
      <trkpt lat="43.67445" lon="3.06784">
        <ele>468</ele>
        <time>2023-11-16T12:05:41+01:00</time>
      </trkpt>
      <trkpt lat="43.67447" lon="3.06757">
        <ele>466</ele>
        <time>2023-11-16T12:06:23+01:00</time>
      </trkpt>
      <trkpt lat="43.67459" lon="3.06736">
        <ele>467</ele>
        <time>2023-11-16T12:06:42+01:00</time>
      </trkpt>
      <trkpt lat="43.67468" lon="3.06713">
        <ele>467</ele>
        <time>2023-11-16T12:07:01+01:00</time>
      </trkpt>
      <trkpt lat="43.67467" lon="3.06743">
        <ele>471</ele>
        <time>2023-11-16T12:08:19+01:00</time>
      </trkpt>
      <trkpt lat="43.67468" lon="3.06769">
        <ele>474</ele>
        <time>2023-11-16T12:08:40+01:00</time>
      </trkpt>
      <trkpt lat="43.67467" lon="3.06794">
        <ele>477</ele>
        <time>2023-11-16T12:08:58+01:00</time>
      </trkpt>
      <trkpt lat="43.6747" lon="3.06818">
        <ele>480</ele>
        <time>2023-11-16T12:12:39+01:00</time>
      </trkpt>
      <trkpt lat="43.67466" lon="3.06851">
        <ele>483</ele>
        <time>2023-11-16T12:13:30+01:00</time>
      </trkpt>
      <trkpt lat="43.67454" lon="3.06879">
        <ele>480</ele>
        <time>2023-11-16T12:17:46+01:00</time>
      </trkpt>
      <trkpt lat="43.67441" lon="3.06912">
        <ele>478</ele>
        <time>2023-11-16T12:18:09+01:00</time>
      </trkpt>
      <trkpt lat="43.67435" lon="3.06935">
        <ele>478</ele>
        <time>2023-11-16T12:21:29+01:00</time>
      </trkpt>
      <trkpt lat="43.67439" lon="3.06953">
        <ele>482</ele>
        <time>2023-11-16T12:21:49+01:00</time>
      </trkpt>
      <trkpt lat="43.67433" lon="3.0697">
        <ele>481</ele>
        <time>2023-11-16T12:22:06+01:00</time>
      </trkpt>
      <trkpt lat="43.67414" lon="3.06989">
        <ele>477</ele>
        <time>2023-11-16T12:22:24+01:00</time>
      </trkpt>
      <trkpt lat="43.67409" lon="3.07011">
        <ele>479</ele>
        <time>2023-11-16T12:22:42+01:00</time>
      </trkpt>
      <trkpt lat="43.67405" lon="3.07035">
        <ele>483</ele>
        <time>2023-11-16T12:23:00+01:00</time>
      </trkpt>
      <trkpt lat="43.67391" lon="3.07086">
        <ele>489</ele>
      </trkpt>
      <trkpt lat="43.67403" lon="3.07074">
        <ele>491</ele>
      </trkpt>
      <trkpt lat="43.67422" lon="3.07049">
        <ele>493</ele>
      </trkpt>
      <trkpt lat="43.6744" lon="3.07021">
        <ele>493</ele>
      </trkpt>
      <trkpt lat="43.67465" lon="3.0699">
        <ele>495</ele>
      </trkpt>
      <trkpt lat="43.67469" lon="3.06941">
        <ele>492</ele>
      </trkpt>
      <trkpt lat="43.67473" lon="3.06916">
        <ele>492</ele>
      </trkpt>
      <trkpt lat="43.67489" lon="3.06871">
        <ele>496</ele>
      </trkpt>
      <trkpt lat="43.67495" lon="3.06846">
        <ele>496</ele>
      </trkpt>
      <trkpt lat="43.67506" lon="3.06821">
        <ele>500</ele>
      </trkpt>
      <trkpt lat="43.67511" lon="3.06792">
        <ele>500</ele>
      </trkpt>
      <trkpt lat="43.67519" lon="3.06756">
        <ele>498</ele>
      </trkpt>
      <trkpt lat="43.67541" lon="3.06727">
        <ele>498</ele>
      </trkpt>
      <trkpt lat="43.67568" lon="3.06716">
        <ele>495</ele>
      </trkpt>
      <trkpt lat="43.67597" lon="3.06714">
        <ele>491</ele>
      </trkpt>
      <trkpt lat="43.67617" lon="3.06716">
        <ele>492</ele>
      </trkpt>
      <trkpt lat="43.67643" lon="3.06692">
        <ele>500</ele>
        <time>2023-11-16T12:23:24+01:00</time>
      </trkpt>
      <trkpt lat="43.67651" lon="3.06669">
        <ele>501</ele>
        <time>2023-11-16T12:23:42+01:00</time>
      </trkpt>
      <trkpt lat="43.67659" lon="3.06645">
        <ele>501</ele>
        <time>2023-11-16T12:24:01+01:00</time>
      </trkpt>
      <trkpt lat="43.67671" lon="3.06624">
        <ele>500</ele>
        <time>2023-11-16T12:24:25+01:00</time>
      </trkpt>
      <trkpt lat="43.67689" lon="3.06615">
        <ele>500</ele>
        <time>2023-11-16T12:24:46+01:00</time>
      </trkpt>
      <trkpt lat="43.67706" lon="3.06621">
        <ele>502</ele>
        <time>2023-11-16T12:25:06+01:00</time>
      </trkpt>
      <trkpt lat="43.677" lon="3.06643">
        <ele>504</ele>
        <time>2023-11-16T12:25:23+01:00</time>
      </trkpt>
      <trkpt lat="43.67684" lon="3.06657">
        <ele>504</ele>
        <time>2023-11-16T12:25:40+01:00</time>
      </trkpt>
      <trkpt lat="43.67673" lon="3.0668">
        <ele>504</ele>
        <time>2023-11-16T12:25:56+01:00</time>
      </trkpt>
      <trkpt lat="43.67665" lon="3.06703">
        <ele>502</ele>
        <time>2023-11-16T12:26:12+01:00</time>
      </trkpt>
      <trkpt lat="43.67655" lon="3.06726">
        <ele>500</ele>
        <time>2023-11-16T12:26:37+01:00</time>
      </trkpt>
      <trkpt lat="43.67641" lon="3.06746">
        <ele>499</ele>
        <time>2023-11-16T12:26:52+01:00</time>
      </trkpt>
      <trkpt lat="43.67632" lon="3.06768">
        <ele>502</ele>
        <time>2023-11-16T12:27:07+01:00</time>
      </trkpt>
      <trkpt lat="43.67625" lon="3.06794">
        <ele>507</ele>
        <time>2023-11-16T12:27:23+01:00</time>
      </trkpt>
      <trkpt lat="43.67629" lon="3.0682">
        <ele>511</ele>
        <time>2023-11-16T12:27:38+01:00</time>
      </trkpt>
      <trkpt lat="43.67638" lon="3.06842">
        <ele>513</ele>
        <time>2023-11-16T12:27:54+01:00</time>
      </trkpt>
      <trkpt lat="43.67648" lon="3.06863">
        <ele>515</ele>
        <time>2023-11-16T12:28:09+01:00</time>
      </trkpt>
      <trkpt lat="43.6766" lon="3.06885">
        <ele>517</ele>
        <time>2023-11-16T12:28:26+01:00</time>
      </trkpt>
      <trkpt lat="43.67673" lon="3.06905">
        <ele>518</ele>
        <time>2023-11-16T12:28:44+01:00</time>
      </trkpt>
      <trkpt lat="43.67684" lon="3.06927">
        <ele>520</ele>
        <time>2023-11-16T12:29:01+01:00</time>
      </trkpt>
      <trkpt lat="43.67686" lon="3.06953">
        <ele>522</ele>
        <time>2023-11-16T12:29:19+01:00</time>
      </trkpt>
      <trkpt lat="43.67684" lon="3.0698">
        <ele>523</ele>
        <time>2023-11-16T12:29:37+01:00</time>
      </trkpt>
      <trkpt lat="43.67683" lon="3.07006">
        <ele>525</ele>
        <time>2023-11-16T12:29:55+01:00</time>
      </trkpt>
      <trkpt lat="43.67687" lon="3.07032">
        <ele>526</ele>
        <time>2023-11-16T12:30:14+01:00</time>
      </trkpt>
      <trkpt lat="43.67688" lon="3.07058">
        <ele>527</ele>
        <time>2023-11-16T12:30:32+01:00</time>
      </trkpt>
      <trkpt lat="43.67687" lon="3.0707">
        <ele>528</ele>
        <time>2023-11-16T12:30:41+01:00</time>
      </trkpt>
      <trkpt lat="43.67692" lon="3.07096">
        <ele>529</ele>
        <time>2023-11-16T12:30:58+01:00</time>
      </trkpt>
      <trkpt lat="43.67704" lon="3.07114">
        <ele>530</ele>
        <time>2023-11-16T12:31:16+01:00</time>
      </trkpt>
      <trkpt lat="43.67712" lon="3.07138">
        <ele>528</ele>
        <time>2023-11-16T12:31:34+01:00</time>
      </trkpt>
      <trkpt lat="43.67716" lon="3.07164">
        <ele>526</ele>
        <time>2023-11-16T12:31:51+01:00</time>
      </trkpt>
      <trkpt lat="43.67716" lon="3.0719">
        <ele>526</ele>
        <time>2023-11-16T12:32:08+01:00</time>
      </trkpt>
      <trkpt lat="43.6772" lon="3.07216">
        <ele>527</ele>
        <time>2023-11-16T12:32:26+01:00</time>
      </trkpt>
      <trkpt lat="43.67729" lon="3.07241">
        <ele>528</ele>
        <time>2023-11-16T12:32:45+01:00</time>
      </trkpt>
      <trkpt lat="43.6774" lon="3.07261">
        <ele>530</ele>
        <time>2023-11-16T12:33:01+01:00</time>
      </trkpt>
      <trkpt lat="43.67747" lon="3.0727">
        <ele>531</ele>
        <time>2023-11-16T12:33:37+01:00</time>
      </trkpt>
      <trkpt lat="43.67738" lon="3.07291">
        <ele>531</ele>
        <time>2023-11-16T12:34:04+01:00</time>
      </trkpt>
      <trkpt lat="43.67725" lon="3.0731">
        <ele>531</ele>
        <time>2023-11-16T12:34:22+01:00</time>
      </trkpt>
      <trkpt lat="43.67717" lon="3.07329">
        <ele>532</ele>
        <time>2023-11-16T12:35:05+01:00</time>
      </trkpt>
      <trkpt lat="43.67704" lon="3.07347">
        <ele>532</ele>
        <time>2023-11-16T12:36:12+01:00</time>
      </trkpt>
      <trkpt lat="43.67692" lon="3.0737">
        <ele>532</ele>
        <time>2023-11-16T12:36:40+01:00</time>
      </trkpt>
      <trkpt lat="43.67676" lon="3.07383">
        <ele>532</ele>
        <time>2023-11-16T12:37:08+01:00</time>
      </trkpt>
      <trkpt lat="43.67658" lon="3.07388">
        <ele>532</ele>
        <time>2023-11-16T12:37:20+01:00</time>
      </trkpt>
      <trkpt lat="43.67638" lon="3.07382">
        <ele>533</ele>
        <time>2023-11-16T12:37:39+01:00</time>
      </trkpt>
      <trkpt lat="43.6762" lon="3.07381">
        <ele>533</ele>
        <time>2023-11-16T12:37:57+01:00</time>
      </trkpt>
      <trkpt lat="43.67604" lon="3.07396">
        <ele>527</ele>
        <time>2023-11-16T12:38:12+01:00</time>
      </trkpt>
      <trkpt lat="43.67601" lon="3.07421">
        <ele>520</ele>
        <time>2023-11-16T12:38:25+01:00</time>
      </trkpt>
      <trkpt lat="43.67611" lon="3.07444">
        <ele>517</ele>
        <time>2023-11-16T12:38:42+01:00</time>
      </trkpt>
      <trkpt lat="43.67624" lon="3.07462">
        <ele>519</ele>
        <time>2023-11-16T12:38:57+01:00</time>
      </trkpt>
      <trkpt lat="43.67633" lon="3.07484">
        <ele>519</ele>
        <time>2023-11-16T12:39:14+01:00</time>
      </trkpt>
      <trkpt lat="43.6764" lon="3.07508">
        <ele>517</ele>
        <time>2023-11-16T12:39:46+01:00</time>
      </trkpt>
      <trkpt lat="43.67646" lon="3.07534">
        <ele>515</ele>
        <time>2023-11-16T12:40:04+01:00</time>
      </trkpt>
      <trkpt lat="43.67652" lon="3.07559">
        <ele>512</ele>
        <time>2023-11-16T12:40:22+01:00</time>
      </trkpt>
      <trkpt lat="43.67659" lon="3.07582">
        <ele>509</ele>
        <time>2023-11-16T12:40:38+01:00</time>
      </trkpt>
      <trkpt lat="43.67659" lon="3.07612">
        <ele>510</ele>
        <time>2023-11-16T12:42:10+01:00</time>
      </trkpt>
      <trkpt lat="43.67649" lon="3.07632">
        <ele>510</ele>
        <time>2023-11-16T12:43:42+01:00</time>
      </trkpt>
      <trkpt lat="43.67637" lon="3.07653">
        <ele>509</ele>
        <time>2023-11-16T12:44:34+01:00</time>
      </trkpt>
      <trkpt lat="43.6763" lon="3.07677">
        <ele>508</ele>
        <time>2023-11-16T12:44:52+01:00</time>
      </trkpt>
      <trkpt lat="43.67632" lon="3.07704">
        <ele>507</ele>
        <time>2023-11-16T12:45:15+01:00</time>
      </trkpt>
      <trkpt lat="43.67632" lon="3.0773">
        <ele>505</ele>
        <time>2023-11-16T12:45:36+01:00</time>
      </trkpt>
      <trkpt lat="43.67645" lon="3.07749">
        <ele>505</ele>
        <time>2023-11-16T12:45:55+01:00</time>
      </trkpt>
      <trkpt lat="43.67649" lon="3.07761">
        <ele>505</ele>
        <time>2023-11-16T12:46:03+01:00</time>
      </trkpt>
      <trkpt lat="43.67655" lon="3.07786">
        <ele>503</ele>
        <time>2023-11-16T12:46:21+01:00</time>
      </trkpt>
      <trkpt lat="43.6766" lon="3.07811">
        <ele>501</ele>
        <time>2023-11-16T12:46:38+01:00</time>
      </trkpt>
      <trkpt lat="43.67674" lon="3.07828">
        <ele>501</ele>
        <time>2023-11-16T12:46:55+01:00</time>
      </trkpt>
      <trkpt lat="43.6769" lon="3.07841">
        <ele>501</ele>
        <time>2023-11-16T12:47:13+01:00</time>
      </trkpt>
      <trkpt lat="43.67698" lon="3.07869">
        <ele>500</ele>
        <time>2023-11-16T12:49:44+01:00</time>
      </trkpt>
      <trkpt lat="43.67696" lon="3.07896">
        <ele>500</ele>
        <time>2023-11-16T12:50:03+01:00</time>
      </trkpt>
      <trkpt lat="43.67703" lon="3.07924">
        <ele>501</ele>
        <time>2023-11-16T12:57:14+01:00</time>
      </trkpt>
      <trkpt lat="43.67711" lon="3.07948">
        <ele>502</ele>
        <time>2023-11-16T12:57:35+01:00</time>
      </trkpt>
      <trkpt lat="43.67718" lon="3.07971">
        <ele>502</ele>
        <time>2023-11-16T12:57:54+01:00</time>
      </trkpt>
      <trkpt lat="43.67724" lon="3.07996">
        <ele>504</ele>
        <time>2023-11-16T12:58:15+01:00</time>
      </trkpt>
      <trkpt lat="43.6773" lon="3.08021">
        <ele>505</ele>
        <time>2023-11-16T12:58:40+01:00</time>
      </trkpt>
      <trkpt lat="43.67728" lon="3.08045">
        <ele>506</ele>
        <time>2023-11-16T12:59:05+01:00</time>
      </trkpt>
      <trkpt lat="43.67731" lon="3.08072">
        <ele>506</ele>
        <time>2023-11-16T12:59:21+01:00</time>
      </trkpt>
      <trkpt lat="43.67743" lon="3.08091">
        <ele>501</ele>
        <time>2023-11-16T12:59:40+01:00</time>
      </trkpt>
      <trkpt lat="43.67761" lon="3.08098">
        <ele>498</ele>
        <time>2023-11-16T13:00:48+01:00</time>
      </trkpt>
      <trkpt lat="43.67776" lon="3.08114">
        <ele>498</ele>
        <time>2023-11-16T13:01:13+01:00</time>
      </trkpt>
      <trkpt lat="43.67789" lon="3.08135">
        <ele>496</ele>
        <time>2023-11-16T13:01:30+01:00</time>
      </trkpt>
      <trkpt lat="43.67796" lon="3.0816">
        <ele>495</ele>
        <time>2023-11-16T13:01:46+01:00</time>
      </trkpt>
      <trkpt lat="43.67796" lon="3.08188">
        <ele>492</ele>
        <time>2023-11-16T13:02:04+01:00</time>
      </trkpt>
      <trkpt lat="43.67792" lon="3.08214">
        <ele>490</ele>
        <time>2023-11-16T13:02:19+01:00</time>
      </trkpt>
      <trkpt lat="43.67791" lon="3.08242">
        <ele>488</ele>
        <time>2023-11-16T13:02:35+01:00</time>
      </trkpt>
      <trkpt lat="43.67791" lon="3.08268">
        <ele>485</ele>
        <time>2023-11-16T13:02:50+01:00</time>
      </trkpt>
      <trkpt lat="43.67788" lon="3.08295">
        <ele>483</ele>
        <time>2023-11-16T13:03:06+01:00</time>
      </trkpt>
      <trkpt lat="43.67784" lon="3.0832">
        <ele>482</ele>
        <time>2023-11-16T13:03:22+01:00</time>
      </trkpt>
      <trkpt lat="43.67779" lon="3.08345">
        <ele>481</ele>
        <time>2023-11-16T13:03:37+01:00</time>
      </trkpt>
      <trkpt lat="43.67765" lon="3.08363">
        <ele>482</ele>
        <time>2023-11-16T13:03:53+01:00</time>
      </trkpt>
      <trkpt lat="43.67753" lon="3.08383">
        <ele>481</ele>
        <time>2023-11-16T13:04:08+01:00</time>
      </trkpt>
      <trkpt lat="43.6774" lon="3.08396">
        <ele>480</ele>
        <time>2023-11-16T13:05:48+01:00</time>
      </trkpt>
      <trkpt lat="43.67725" lon="3.08409">
        <ele>480</ele>
        <time>2023-11-16T13:06:29+01:00</time>
      </trkpt>
      <trkpt lat="43.67743" lon="3.08402">
        <ele>479</ele>
        <time>2023-11-16T13:07:42+01:00</time>
      </trkpt>
      <trkpt lat="43.67762" lon="3.08399">
        <ele>477</ele>
        <time>2023-11-16T13:07:59+01:00</time>
      </trkpt>
      <trkpt lat="43.6778" lon="3.08389">
        <ele>476</ele>
        <time>2023-11-16T13:08:14+01:00</time>
      </trkpt>
      <trkpt lat="43.67795" lon="3.08371">
        <ele>475</ele>
        <time>2023-11-16T13:08:30+01:00</time>
      </trkpt>
      <trkpt lat="43.67806" lon="3.08348">
        <ele>475</ele>
        <time>2023-11-16T13:08:44+01:00</time>
      </trkpt>
      <trkpt lat="43.67815" lon="3.08325">
        <ele>474</ele>
        <time>2023-11-16T13:09:00+01:00</time>
      </trkpt>
      <trkpt lat="43.67826" lon="3.08304">
        <ele>473</ele>
        <time>2023-11-16T13:09:14+01:00</time>
      </trkpt>
      <trkpt lat="43.67841" lon="3.08289">
        <ele>473</ele>
        <time>2023-11-16T13:09:31+01:00</time>
      </trkpt>
      <trkpt lat="43.67859" lon="3.08294">
        <ele>472</ele>
        <time>2023-11-16T13:09:48+01:00</time>
      </trkpt>
      <trkpt lat="43.67871" lon="3.08314">
        <ele>466</ele>
        <time>2023-11-16T13:10:02+01:00</time>
      </trkpt>
      <trkpt lat="43.67878" lon="3.08338">
        <ele>458</ele>
        <time>2023-11-16T13:10:17+01:00</time>
      </trkpt>
      <trkpt lat="43.67889" lon="3.08361">
        <ele>452</ele>
        <time>2023-11-16T13:10:33+01:00</time>
      </trkpt>
      <trkpt lat="43.67897" lon="3.08385">
        <ele>450</ele>
        <time>2023-11-16T13:10:49+01:00</time>
      </trkpt>
      <trkpt lat="43.67906" lon="3.08408">
        <ele>448</ele>
        <time>2023-11-16T13:11:36+01:00</time>
      </trkpt>
      <trkpt lat="43.67905" lon="3.08434">
        <ele>446</ele>
        <time>2023-11-16T13:11:49+01:00</time>
      </trkpt>
      <trkpt lat="43.67906" lon="3.08459">
        <ele>445</ele>
        <time>2023-11-16T13:12:04+01:00</time>
      </trkpt>
      <trkpt lat="43.6791" lon="3.08485">
        <ele>443</ele>
        <time>2023-11-16T13:12:19+01:00</time>
      </trkpt>
      <trkpt lat="43.67915" lon="3.08512">
        <ele>442</ele>
        <time>2023-11-16T13:12:36+01:00</time>
      </trkpt>
      <trkpt lat="43.67919" lon="3.08538">
        <ele>442</ele>
        <time>2023-11-16T13:12:51+01:00</time>
      </trkpt>
      <trkpt lat="43.67923" lon="3.08564">
        <ele>441</ele>
        <time>2023-11-16T13:13:06+01:00</time>
      </trkpt>
      <trkpt lat="43.67929" lon="3.08588">
        <ele>441</ele>
        <time>2023-11-16T13:13:19+01:00</time>
      </trkpt>
      <trkpt lat="43.67936" lon="3.08614">
        <ele>440</ele>
        <time>2023-11-16T13:13:34+01:00</time>
      </trkpt>
      <trkpt lat="43.67946" lon="3.08636">
        <ele>440</ele>
        <time>2023-11-16T13:13:48+01:00</time>
      </trkpt>
      <trkpt lat="43.67959" lon="3.08654">
        <ele>440</ele>
        <time>2023-11-16T13:14:02+01:00</time>
      </trkpt>
      <trkpt lat="43.67978" lon="3.08665">
        <ele>440</ele>
        <time>2023-11-16T13:14:16+01:00</time>
      </trkpt>
      <trkpt lat="43.67997" lon="3.08669">
        <ele>440</ele>
        <time>2023-11-16T13:14:31+01:00</time>
      </trkpt>
      <trkpt lat="43.68013" lon="3.08679">
        <ele>435</ele>
        <time>2023-11-16T13:14:45+01:00</time>
      </trkpt>
      <trkpt lat="43.68017" lon="3.08705">
        <ele>431</ele>
        <time>2023-11-16T13:15:01+01:00</time>
      </trkpt>
      <trkpt lat="43.68008" lon="3.08728">
        <ele>431</ele>
        <time>2023-11-16T13:15:59+01:00</time>
      </trkpt>
      <trkpt lat="43.67999" lon="3.08751">
        <ele>429</ele>
        <time>2023-11-16T13:16:15+01:00</time>
      </trkpt>
      <trkpt lat="43.67987" lon="3.08771">
        <ele>424</ele>
        <time>2023-11-16T13:16:58+01:00</time>
      </trkpt>
      <trkpt lat="43.67967" lon="3.08773">
        <ele>426</ele>
        <time>2023-11-16T13:17:13+01:00</time>
      </trkpt>
      <trkpt lat="43.67949" lon="3.08766">
        <ele>426</ele>
        <time>2023-11-16T13:17:29+01:00</time>
      </trkpt>
      <trkpt lat="43.6793" lon="3.08771">
        <ele>426</ele>
        <time>2023-11-16T13:17:42+01:00</time>
      </trkpt>
      <trkpt lat="43.67921" lon="3.08779">
        <ele>425</ele>
        <time>2023-11-16T13:17:50+01:00</time>
      </trkpt>
      <trkpt lat="43.6791" lon="3.08799">
        <ele>423</ele>
        <time>2023-11-16T13:18:04+01:00</time>
      </trkpt>
      <trkpt lat="43.67896" lon="3.08817">
        <ele>421</ele>
        <time>2023-11-16T13:18:19+01:00</time>
      </trkpt>
      <trkpt lat="43.67887" lon="3.08839">
        <ele>419</ele>
        <time>2023-11-16T13:18:32+01:00</time>
      </trkpt>
      <trkpt lat="43.67876" lon="3.08862">
        <ele>417</ele>
        <time>2023-11-16T13:18:47+01:00</time>
      </trkpt>
      <trkpt lat="43.67867" lon="3.08886">
        <ele>415</ele>
        <time>2023-11-16T13:19:02+01:00</time>
      </trkpt>
      <trkpt lat="43.67859" lon="3.08909">
        <ele>412</ele>
        <time>2023-11-16T13:19:16+01:00</time>
      </trkpt>
      <trkpt lat="43.67852" lon="3.08933">
        <ele>410</ele>
        <time>2023-11-16T13:19:31+01:00</time>
      </trkpt>
      <trkpt lat="43.67846" lon="3.08958">
        <ele>407</ele>
        <time>2023-11-16T13:19:45+01:00</time>
      </trkpt>
      <trkpt lat="43.67833" lon="3.08978">
        <ele>405</ele>
        <time>2023-11-16T13:20:01+01:00</time>
      </trkpt>
      <trkpt lat="43.67818" lon="3.08982">
        <ele>407</ele>
        <time>2023-11-16T13:20:59+01:00</time>
      </trkpt>
      <trkpt lat="43.678" lon="3.08969">
        <ele>409</ele>
        <time>2023-11-16T13:21:16+01:00</time>
      </trkpt>
      <trkpt lat="43.67781" lon="3.08964">
        <ele>410</ele>
        <time>2023-11-16T13:21:31+01:00</time>
      </trkpt>
      <trkpt lat="43.67761" lon="3.08967">
        <ele>410</ele>
        <time>2023-11-16T13:21:48+01:00</time>
      </trkpt>
      <trkpt lat="43.67752" lon="3.08989">
        <ele>410</ele>
        <time>2023-11-16T13:22:39+01:00</time>
      </trkpt>
      <trkpt lat="43.6776" lon="3.09014">
        <ele>410</ele>
        <time>2023-11-16T13:22:56+01:00</time>
      </trkpt>
      <trkpt lat="43.67771" lon="3.09028">
        <ele>410</ele>
        <time>2023-11-16T13:23:16+01:00</time>
      </trkpt>
      <trkpt lat="43.67787" lon="3.09044">
        <ele>409</ele>
        <time>2023-11-16T13:23:36+01:00</time>
      </trkpt>
      <trkpt lat="43.67792" lon="3.09062">
        <ele>407</ele>
        <time>2023-11-16T13:23:53+01:00</time>
      </trkpt>
      <trkpt lat="43.67803" lon="3.09088">
        <ele>401</ele>
        <time>2023-11-16T13:24:27+01:00</time>
      </trkpt>
      <trkpt lat="43.67793" lon="3.09108">
        <ele>399</ele>
        <time>2023-11-16T13:24:52+01:00</time>
      </trkpt>
      <trkpt lat="43.67785" lon="3.09133">
        <ele>396</ele>
        <time>2023-11-16T13:25:14+01:00</time>
      </trkpt>
      <trkpt lat="43.67782" lon="3.09165">
        <ele>391</ele>
        <time>2023-11-16T13:25:30+01:00</time>
      </trkpt>
      <trkpt lat="43.67786" lon="3.09192">
        <ele>382</ele>
        <time>2023-11-16T13:25:43+01:00</time>
      </trkpt>
      <trkpt lat="43.67798" lon="3.09201">
        <ele>379</ele>
        <time>2023-11-16T13:26:00+01:00</time>
      </trkpt>
      <trkpt lat="43.67808" lon="3.09203">
        <ele>378</ele>
      </trkpt>
      <trkpt lat="43.67787" lon="3.0921">
        <ele>377</ele>
      </trkpt>
      <trkpt lat="43.67759" lon="3.09208">
        <ele>377</ele>
        <time>2023-11-16T13:33:28+01:00</time>
      </trkpt>
      <trkpt lat="43.67786" lon="3.09211">
        <ele>377</ele>
      </trkpt>
      <trkpt lat="43.67819" lon="3.09198">
        <ele>379</ele>
        <time>2023-11-16T13:33:44+01:00</time>
      </trkpt>
      <trkpt lat="43.67826" lon="3.09189">
        <ele>380</ele>
        <time>2023-11-16T13:34:00+01:00</time>
      </trkpt>
      <trkpt lat="43.67842" lon="3.09175">
        <ele>382</ele>
        <time>2023-11-16T13:34:18+01:00</time>
      </trkpt>
      <trkpt lat="43.67857" lon="3.09161">
        <ele>383</ele>
        <time>2023-11-16T13:35:37+01:00</time>
      </trkpt>
      <trkpt lat="43.67875" lon="3.09149">
        <ele>383</ele>
        <time>2023-11-16T13:35:53+01:00</time>
      </trkpt>
      <trkpt lat="43.67892" lon="3.0914">
        <ele>382</ele>
        <time>2023-11-16T13:36:11+01:00</time>
      </trkpt>
      <trkpt lat="43.6791" lon="3.09132">
        <ele>380</ele>
        <time>2023-11-16T13:36:26+01:00</time>
      </trkpt>
      <trkpt lat="43.67925" lon="3.09118">
        <ele>379</ele>
        <time>2023-11-16T13:36:39+01:00</time>
      </trkpt>
      <trkpt lat="43.67936" lon="3.09096">
        <ele>380</ele>
        <time>2023-11-16T13:36:54+01:00</time>
      </trkpt>
      <trkpt lat="43.67939" lon="3.0907">
        <ele>383</ele>
        <time>2023-11-16T13:37:09+01:00</time>
      </trkpt>
      <trkpt lat="43.67941" lon="3.09043">
        <ele>385</ele>
        <time>2023-11-16T13:37:25+01:00</time>
      </trkpt>
      <trkpt lat="43.6794" lon="3.09017">
        <ele>388</ele>
        <time>2023-11-16T13:37:41+01:00</time>
      </trkpt>
      <trkpt lat="43.67936" lon="3.0899">
        <ele>390</ele>
        <time>2023-11-16T13:37:57+01:00</time>
      </trkpt>
      <trkpt lat="43.67929" lon="3.08972">
        <ele>394</ele>
        <time>2023-11-16T13:39:50+01:00</time>
      </trkpt>
      <trkpt lat="43.67941" lon="3.08985">
        <ele>389</ele>
        <time>2023-11-16T13:40:50+01:00</time>
      </trkpt>
      <trkpt lat="43.67998" lon="3.0899">
        <ele>373</ele>
        <time>2023-11-16T13:44:34+01:00</time>
      </trkpt>
      <trkpt lat="43.68004" lon="3.08962">
        <ele>376</ele>
        <time>2023-11-16T13:46:26+01:00</time>
      </trkpt>
      <trkpt lat="43.68014" lon="3.08941">
        <ele>375</ele>
        <time>2023-11-16T13:46:44+01:00</time>
      </trkpt>
      <trkpt lat="43.68023" lon="3.08916">
        <ele>376</ele>
        <time>2023-11-16T13:47:02+01:00</time>
      </trkpt>
      <trkpt lat="43.68026" lon="3.08892">
        <ele>379</ele>
        <time>2023-11-16T13:47:42+01:00</time>
      </trkpt>
      <trkpt lat="43.68041" lon="3.08877">
        <ele>378</ele>
        <time>2023-11-16T13:51:06+01:00</time>
      </trkpt>
      <trkpt lat="43.68053" lon="3.08858">
        <ele>378</ele>
        <time>2023-11-16T13:51:36+01:00</time>
      </trkpt>
      <trkpt lat="43.68064" lon="3.08835">
        <ele>379</ele>
        <time>2023-11-16T13:52:14+01:00</time>
      </trkpt>
      <trkpt lat="43.68078" lon="3.08817">
        <ele>379</ele>
        <time>2023-11-16T13:52:31+01:00</time>
      </trkpt>
      <trkpt lat="43.68079" lon="3.08795">
        <ele>384</ele>
        <time>2023-11-16T13:54:12+01:00</time>
      </trkpt>
      <trkpt lat="43.68098" lon="3.08785">
        <ele>381</ele>
        <time>2023-11-16T13:59:57+01:00</time>
      </trkpt>
      <trkpt lat="43.68113" lon="3.08768">
        <ele>379</ele>
        <time>2023-11-16T14:00:17+01:00</time>
      </trkpt>
      <trkpt lat="43.68127" lon="3.0875">
        <ele>378</ele>
        <time>2023-11-16T14:00:34+01:00</time>
      </trkpt>
      <trkpt lat="43.68139" lon="3.0873">
        <ele>377</ele>
        <time>2023-11-16T14:00:55+01:00</time>
      </trkpt>
      <trkpt lat="43.6815" lon="3.0871">
        <ele>376</ele>
        <time>2023-11-16T14:01:09+01:00</time>
      </trkpt>
      <trkpt lat="43.68157" lon="3.08688">
        <ele>378</ele>
        <time>2023-11-16T14:01:33+01:00</time>
      </trkpt>
      <trkpt lat="43.68164" lon="3.08664">
        <ele>378</ele>
        <time>2023-11-16T14:01:50+01:00</time>
      </trkpt>
      <trkpt lat="43.68173" lon="3.0864">
        <ele>376</ele>
        <time>2023-11-16T14:02:07+01:00</time>
      </trkpt>
      <trkpt lat="43.68177" lon="3.08667">
        <ele>373</ele>
        <time>2023-11-16T14:03:26+01:00</time>
      </trkpt>
      <trkpt lat="43.68168" lon="3.08688">
        <ele>372</ele>
        <time>2023-11-16T14:03:41+01:00</time>
      </trkpt>
      <trkpt lat="43.68159" lon="3.0871">
        <ele>372</ele>
        <time>2023-11-16T14:03:55+01:00</time>
      </trkpt>
      <trkpt lat="43.68149" lon="3.08733">
        <ele>371</ele>
        <time>2023-11-16T14:04:11+01:00</time>
      </trkpt>
      <trkpt lat="43.6814" lon="3.08757">
        <ele>371</ele>
        <time>2023-11-16T14:04:29+01:00</time>
      </trkpt>
      <trkpt lat="43.68128" lon="3.0878">
        <ele>371</ele>
        <time>2023-11-16T14:04:43+01:00</time>
      </trkpt>
      <trkpt lat="43.68118" lon="3.08803">
        <ele>371</ele>
        <time>2023-11-16T14:04:59+01:00</time>
      </trkpt>
      <trkpt lat="43.68106" lon="3.08823">
        <ele>370</ele>
        <time>2023-11-16T14:05:16+01:00</time>
      </trkpt>
      <trkpt lat="43.68094" lon="3.08843">
        <ele>368</ele>
        <time>2023-11-16T14:05:33+01:00</time>
      </trkpt>
      <trkpt lat="43.68082" lon="3.08864">
        <ele>367</ele>
        <time>2023-11-16T14:05:48+01:00</time>
      </trkpt>
      <trkpt lat="43.68071" lon="3.08886">
        <ele>366</ele>
        <time>2023-11-16T14:06:03+01:00</time>
      </trkpt>
      <trkpt lat="43.68058" lon="3.08905">
        <ele>365</ele>
        <time>2023-11-16T14:06:17+01:00</time>
      </trkpt>
      <trkpt lat="43.68051" lon="3.08926">
        <ele>363</ele>
        <time>2023-11-16T14:06:58+01:00</time>
      </trkpt>
      <trkpt lat="43.6804" lon="3.08946">
        <ele>363</ele>
        <time>2023-11-16T14:07:17+01:00</time>
      </trkpt>
      <trkpt lat="43.6803" lon="3.0897">
        <ele>362</ele>
        <time>2023-11-16T14:07:34+01:00</time>
      </trkpt>
      <trkpt lat="43.68022" lon="3.08995">
        <ele>360</ele>
        <time>2023-11-16T14:07:51+01:00</time>
      </trkpt>
      <trkpt lat="43.68014" lon="3.09019">
        <ele>360</ele>
        <time>2023-11-16T14:09:10+01:00</time>
      </trkpt>
      <trkpt lat="43.68004" lon="3.0904">
        <ele>363</ele>
        <time>2023-11-16T14:09:26+01:00</time>
      </trkpt>
      <trkpt lat="43.67995" lon="3.09063">
        <ele>364</ele>
        <time>2023-11-16T14:09:45+01:00</time>
      </trkpt>
      <trkpt lat="43.67984" lon="3.09085">
        <ele>364</ele>
        <time>2023-11-16T14:10:36+01:00</time>
      </trkpt>
      <trkpt lat="43.68002" lon="3.09072">
        <ele>358</ele>
        <time>2023-11-16T14:11:24+01:00</time>
      </trkpt>
      <trkpt lat="43.68011" lon="3.09066">
        <ele>353</ele>
        <time>2023-11-16T14:11:34+01:00</time>
      </trkpt>
      <trkpt lat="43.68025" lon="3.09048">
        <ele>348</ele>
        <time>2023-11-16T14:11:56+01:00</time>
      </trkpt>
      <trkpt lat="43.68037" lon="3.0903">
        <ele>347</ele>
        <time>2023-11-16T14:12:15+01:00</time>
      </trkpt>
      <trkpt lat="43.68046" lon="3.09007">
        <ele>347</ele>
        <time>2023-11-16T14:13:10+01:00</time>
      </trkpt>
      <trkpt lat="43.68059" lon="3.08989">
        <ele>346</ele>
        <time>2023-11-16T14:13:29+01:00</time>
      </trkpt>
      <trkpt lat="43.68072" lon="3.09003">
        <ele>339</ele>
        <time>2023-11-16T14:14:04+01:00</time>
      </trkpt>
      <trkpt lat="43.68073" lon="3.09028">
        <ele>334</ele>
        <time>2023-11-16T14:14:34+01:00</time>
      </trkpt>
      <trkpt lat="43.68077" lon="3.09054">
        <ele>331</ele>
        <time>2023-11-16T14:14:58+01:00</time>
      </trkpt>
      <trkpt lat="43.68074" lon="3.09063">
        <ele>331</ele>
        <time>2023-11-16T14:15:26+01:00</time>
      </trkpt>
      <trkpt lat="43.68065" lon="3.09072">
        <ele>331</ele>
        <time>2023-11-16T14:16:54+01:00</time>
      </trkpt>
      <trkpt lat="43.68054" lon="3.09089">
        <ele>330</ele>
        <time>2023-11-16T14:17:59+01:00</time>
      </trkpt>
      <trkpt lat="43.68042" lon="3.09105">
        <ele>331</ele>
        <time>2023-11-16T14:18:17+01:00</time>
      </trkpt>
      <trkpt lat="43.68036" lon="3.09116">
        <ele>331</ele>
      </trkpt>
      <trkpt lat="43.68029" lon="3.09121">
        <ele>331</ele>
        <time>2023-11-16T14:18:35+01:00</time>
      </trkpt>
      <trkpt lat="43.68018" lon="3.09135">
        <ele>334</ele>
        <time>2023-11-16T14:18:50+01:00</time>
      </trkpt>
      <trkpt lat="43.68006" lon="3.09145">
        <ele>336</ele>
        <time>2023-11-16T14:19:06+01:00</time>
      </trkpt>
      <trkpt lat="43.67994" lon="3.09166">
        <ele>335</ele>
        <time>2023-11-16T14:19:20+01:00</time>
      </trkpt>
      <trkpt lat="43.67983" lon="3.09187">
        <ele>335</ele>
        <time>2023-11-16T14:19:34+01:00</time>
      </trkpt>
      <trkpt lat="43.67974" lon="3.09209">
        <ele>333</ele>
        <time>2023-11-16T14:19:51+01:00</time>
      </trkpt>
      <trkpt lat="43.67964" lon="3.09233">
        <ele>333</ele>
        <time>2023-11-16T14:21:29+01:00</time>
      </trkpt>
      <trkpt lat="43.67958" lon="3.09249">
        <ele>332</ele>
        <time>2023-11-16T14:21:45+01:00</time>
      </trkpt>
      <trkpt lat="43.67956" lon="3.09261">
        <ele>331</ele>
        <time>2023-11-16T14:22:12+01:00</time>
      </trkpt>
      <trkpt lat="43.67953" lon="3.09271">
        <ele>331</ele>
        <time>2023-11-16T14:22:34+01:00</time>
      </trkpt>
      <trkpt lat="43.67941" lon="3.09293">
        <ele>330</ele>
        <time>2023-11-16T14:23:05+01:00</time>
      </trkpt>
      <trkpt lat="43.67937" lon="3.09306">
        <ele>330</ele>
        <time>2023-11-16T14:24:17+01:00</time>
      </trkpt>
      <trkpt lat="43.67929" lon="3.09318">
        <ele>330</ele>
        <time>2023-11-16T14:24:32+01:00</time>
      </trkpt>
      <trkpt lat="43.6792" lon="3.09331">
        <ele>330</ele>
        <time>2023-11-16T14:25:17+01:00</time>
      </trkpt>
      <trkpt lat="43.67918" lon="3.09344">
        <ele>330</ele>
        <time>2023-11-16T14:25:34+01:00</time>
      </trkpt>
      <trkpt lat="43.67918" lon="3.09354">
        <ele>330</ele>
        <time>2023-11-16T14:25:50+01:00</time>
      </trkpt>
      <trkpt lat="43.67921" lon="3.09371">
        <ele>330</ele>
        <time>2023-11-16T14:26:06+01:00</time>
      </trkpt>
      <trkpt lat="43.67921" lon="3.09383">
        <ele>330</ele>
        <time>2023-11-16T14:26:22+01:00</time>
      </trkpt>
      <trkpt lat="43.67907" lon="3.09402">
        <ele>330</ele>
        <time>2023-11-16T14:26:40+01:00</time>
      </trkpt>
      <trkpt lat="43.67889" lon="3.09412">
        <ele>330</ele>
        <time>2023-11-16T14:26:56+01:00</time>
      </trkpt>
      <trkpt lat="43.67873" lon="3.09425">
        <ele>330</ele>
        <time>2023-11-16T14:27:10+01:00</time>
      </trkpt>
      <trkpt lat="43.67856" lon="3.09437">
        <ele>330</ele>
        <time>2023-11-16T14:27:25+01:00</time>
      </trkpt>
      <trkpt lat="43.67838" lon="3.09447">
        <ele>330</ele>
        <time>2023-11-16T14:27:40+01:00</time>
      </trkpt>
      <trkpt lat="43.6782" lon="3.09465">
        <ele>330</ele>
        <time>2023-11-16T14:30:11+01:00</time>
      </trkpt>
      <trkpt lat="43.6782" lon="3.09483">
        <ele>330</ele>
        <time>2023-11-16T14:30:31+01:00</time>
      </trkpt>
      <trkpt lat="43.67817" lon="3.0951">
        <ele>330</ele>
        <time>2023-11-16T14:30:49+01:00</time>
      </trkpt>
      <trkpt lat="43.67806" lon="3.09529">
        <ele>330</ele>
        <time>2023-11-16T14:31:04+01:00</time>
      </trkpt>
      <trkpt lat="43.67789" lon="3.09541">
        <ele>330</ele>
        <time>2023-11-16T14:31:20+01:00</time>
      </trkpt>
      <trkpt lat="43.67772" lon="3.09545">
        <ele>331</ele>
      </trkpt>
    </trkseg>
  </trk>
</gpx>